createdAt,value
2017-12-05T00:01:44.346Z,102865.34
2017-12-05T00:04:11.940Z,102870.39
2017-12-05T00:06:39.559Z,102860.36
2017-12-05T00:09:07.141Z,102862.73
2017-12-05T00:11:34.771Z,102873.91
2017-12-05T00:14:02.363Z,102861.02
2017-12-05T00:16:29.960Z,102859.22
2017-12-05T00:18:57.562Z,102866.63
2017-12-05T00:21:25.181Z,102875.03
2017-12-05T00:23:52.790Z,102867.05
2017-12-05T00:26:20.502Z,102863.20
2017-12-05T00:28:48.094Z,102863.96
2017-12-05T00:31:15.738Z,102865.43
2017-12-05T00:33:43.342Z,102858.35
2017-12-05T00:36:10.954Z,102853.84
2017-12-05T00:38:38.611Z,102851.32
2017-12-05T00:41:06.218Z,102848.75
2017-12-05T00:43:33.811Z,102846.37
2017-12-05T00:46:01.434Z,102852.98
2017-12-05T00:48:29.028Z,102850.27
2017-12-05T00:50:56.662Z,102842.51
2017-12-05T00:53:24.275Z,102843.16
2017-12-05T00:55:51.895Z,102841.98
2017-12-05T00:58:19.509Z,102836.66
2017-12-05T01:00:47.146Z,102842.41
2017-12-05T01:03:14.766Z,102846.03
2017-12-05T01:05:42.362Z,102849.77
2017-12-05T01:08:10.023Z,102845.03
2017-12-05T01:10:37.613Z,102853.02
2017-12-05T01:13:05.218Z,102856.00
2017-12-05T01:15:32.798Z,102858.91
2017-12-05T01:18:00.424Z,102854.72
2017-12-05T01:20:28.042Z,102861.52
2017-12-05T01:22:55.672Z,102863.25
2017-12-05T01:25:23.286Z,102862.25
2017-12-05T01:27:50.990Z,102859.63
2017-12-05T01:30:18.603Z,102862.62
2017-12-05T01:32:46.250Z,102868.03
2017-12-05T01:35:13.845Z,102864.95
2017-12-05T01:37:41.482Z,102865.28
2017-12-05T01:40:09.126Z,102861.82
2017-12-05T01:42:36.738Z,102856.92
2017-12-05T01:45:04.346Z,102858.25
2017-12-05T01:47:31.943Z,102857.11
2017-12-05T01:49:59.581Z,102863.67
2017-12-05T01:52:27.179Z,102864.67
2017-12-05T01:54:54.790Z,102872.51
2017-12-05T01:57:22.382Z,102876.55
2017-12-05T01:59:50.006Z,102877.80
2017-12-05T02:02:17.678Z,102875.07
2017-12-05T02:04:45.283Z,102875.84
2017-12-05T02:07:12.881Z,102869.13
2017-12-05T02:09:40.534Z,102862.85
2017-12-05T02:12:08.121Z,102858.15
2017-12-05T02:14:35.726Z,102856.48
2017-12-05T02:17:03.319Z,102866.23
2017-12-05T02:19:30.994Z,102866.23
2017-12-05T02:21:58.619Z,102860.53
2017-12-05T02:24:26.295Z,102862.47
2017-12-05T02:26:53.926Z,102857.88
2017-12-05T02:29:21.610Z,102856.97
2017-12-05T02:31:49.189Z,102848.07
2017-12-05T02:34:16.808Z,102852.45
2017-12-05T02:36:44.487Z,102852.73
2017-12-05T02:39:12.117Z,102844.21
2017-12-05T02:41:39.694Z,102847.11
2017-12-05T02:44:07.323Z,102845.84
2017-12-05T02:46:34.931Z,102847.13
2017-12-05T02:49:02.537Z,102841.75
2017-12-05T02:51:30.187Z,102837.61
2017-12-05T02:53:57.835Z,102839.23
2017-12-05T02:56:25.423Z,102849.73
2017-12-05T02:58:53.032Z,102858.86
2017-12-05T03:01:20.625Z,102860.05
2017-12-05T03:03:48.242Z,102860.05
2017-12-05T03:06:15.814Z,102859.00
2017-12-05T03:08:43.435Z,102859.39
2017-12-05T03:11:11.044Z,102860.72
2017-12-05T03:13:38.647Z,102859.86
2017-12-05T03:16:06.266Z,102855.02
2017-12-05T03:18:33.846Z,102856.25
2017-12-05T03:21:01.469Z,102854.16
2017-12-05T03:23:29.134Z,102850.59
2017-12-05T03:25:56.817Z,102856.87
2017-12-05T03:28:24.438Z,102848.07
2017-12-05T03:30:52.111Z,102846.50
2017-12-05T03:33:19.742Z,102848.02
2017-12-05T03:35:47.366Z,102842.55
2017-12-05T03:38:14.962Z,102836.62
2017-12-05T03:40:42.573Z,102836.77
2017-12-05T03:43:10.226Z,102836.62
2017-12-05T03:45:37.842Z,102828.20
2017-12-05T03:48:05.457Z,102833.34
2017-12-05T03:50:33.094Z,102837.00
2017-12-05T03:53:00.704Z,102837.61
2017-12-05T03:55:28.365Z,102835.52
2017-12-05T03:57:55.959Z,102832.82
2017-12-05T04:00:23.594Z,102829.16
2017-12-05T04:02:51.189Z,102826.96
2017-12-05T04:05:18.845Z,102832.63
2017-12-05T04:07:46.446Z,102836.81
2017-12-05T04:10:14.059Z,102825.77
2017-12-05T04:12:41.661Z,102823.22
2017-12-05T04:15:09.290Z,102828.39
2017-12-05T04:17:36.879Z,102830.58
2017-12-05T04:20:04.560Z,102817.45
2017-12-05T04:22:32.132Z,102817.60
2017-12-05T04:24:59.736Z,102815.66
2017-12-05T04:27:27.364Z,102814.09
2017-12-05T04:29:55.008Z,102809.09
2017-12-05T04:32:22.685Z,102810.28
2017-12-05T04:34:50.271Z,102812.52
2017-12-05T04:37:17.893Z,102812.95
2017-12-05T04:39:45.490Z,102811.15
2017-12-05T04:42:13.114Z,102808.48
2017-12-05T04:44:40.707Z,102811.85
2017-12-05T04:47:08.301Z,102809.95
2017-12-05T04:49:35.899Z,102806.91
2017-12-05T04:52:03.530Z,102813.56
2017-12-05T04:54:31.131Z,102814.75
2017-12-05T04:56:58.755Z,102811.66
2017-12-05T04:59:26.352Z,102813.66
2017-12-05T05:01:54.011Z,102808.09
2017-12-05T05:04:21.623Z,102811.48
2017-12-05T05:06:49.275Z,102815.61
2017-12-05T05:09:16.870Z,102815.75
2017-12-05T05:11:44.482Z,102818.74
2017-12-05T05:14:12.102Z,102819.84
2017-12-05T05:16:39.730Z,102824.02
2017-12-05T05:19:07.331Z,102817.60
2017-12-05T05:21:34.971Z,102826.45
2017-12-05T05:24:02.559Z,102816.13
2017-12-05T05:26:30.291Z,102828.02
2017-12-05T05:28:57.942Z,102820.27
2017-12-05T05:31:25.538Z,102825.02
2017-12-05T05:33:53.223Z,102826.45
2017-12-05T05:36:20.816Z,102824.65
2017-12-05T05:38:48.451Z,102827.27
2017-12-05T05:41:16.043Z,102832.25
2017-12-05T05:43:43.674Z,102832.15
2017-12-05T05:46:11.272Z,102833.44
2017-12-05T05:48:38.905Z,102831.26
2017-12-05T05:51:06.497Z,102835.58
2017-12-05T05:53:34.125Z,102839.39
2017-12-05T05:56:01.715Z,102838.71
2017-12-05T05:58:29.346Z,102838.91
2017-12-05T06:00:56.930Z,102844.66
2017-12-05T06:03:24.582Z,102843.56
2017-12-05T06:05:52.227Z,102838.48
2017-12-05T06:08:19.926Z,102836.86
2017-12-05T06:10:47.530Z,102838.71
2017-12-05T06:13:15.174Z,102838.90
2017-12-05T06:15:42.758Z,102839.11
2017-12-05T06:18:10.395Z,102848.52
2017-12-05T06:20:38.034Z,102846.19
2017-12-05T06:23:05.635Z,102843.98
2017-12-05T06:25:33.286Z,102841.19
2017-12-05T06:28:00.899Z,102834.16
2017-12-05T06:30:28.643Z,102843.94
2017-12-05T06:32:56.239Z,102833.34
2017-12-05T06:35:23.868Z,102836.05
2017-12-05T06:37:51.456Z,102839.86
2017-12-05T06:40:19.094Z,102836.91
2017-12-05T06:42:46.696Z,102841.14
2017-12-05T06:45:14.298Z,102839.25
2017-12-05T06:47:41.897Z,102842.47
2017-12-05T06:50:09.506Z,102847.09
2017-12-05T06:52:37.125Z,102848.80
2017-12-05T06:55:04.750Z,102853.49
2017-12-05T06:57:32.340Z,102852.83
2017-12-05T06:59:59.958Z,102847.94
2017-12-05T07:02:27.572Z,102849.41
2017-12-05T07:04:55.247Z,102857.83
2017-12-05T07:07:22.860Z,102856.55
2017-12-05T07:09:50.481Z,102860.39
2017-12-05T07:12:18.100Z,102861.53
2017-12-05T07:14:45.726Z,102863.77
2017-12-05T07:17:13.362Z,102862.53
2017-12-05T07:19:40.938Z,102865.86
2017-12-05T07:22:08.528Z,102863.11
2017-12-05T07:24:36.261Z,102869.28
2017-12-05T07:27:03.855Z,102862.11
2017-12-05T07:29:31.502Z,102865.48
2017-12-05T07:31:59.169Z,102867.53
2017-12-05T07:34:26.784Z,102864.54
2017-12-05T07:36:54.335Z,102861.58
2017-12-05T07:39:21.961Z,102864.78
2017-12-05T07:41:49.535Z,102869.00
2017-12-05T07:44:17.309Z,102873.86
2017-12-05T07:46:44.938Z,102881.27
2017-12-05T07:49:12.638Z,102885.17
2017-12-05T07:51:40.219Z,102889.31
2017-12-05T07:54:07.841Z,102890.92
2017-12-05T07:56:35.469Z,102891.92
2017-12-05T07:59:03.082Z,102893.84
2017-12-05T08:01:30.741Z,102887.73
2017-12-05T08:03:58.338Z,102893.83
2017-12-05T08:06:25.982Z,102878.47
2017-12-05T08:08:53.703Z,102883.27
2017-12-05T08:11:21.322Z,102877.55
2017-12-05T08:13:48.920Z,102881.03
2017-12-05T08:16:16.538Z,102879.94
2017-12-05T08:18:44.127Z,102878.70
2017-12-05T08:21:11.748Z,102888.11
2017-12-05T08:23:39.350Z,102887.83
2017-12-05T08:26:06.970Z,102886.27
2017-12-05T08:28:34.579Z,102890.68
2017-12-05T08:31:02.214Z,102888.92
2017-12-05T08:33:29.786Z,102886.12
2017-12-05T08:35:57.427Z,102892.11
2017-12-05T08:38:27.505Z,102897.19
2017-12-05T08:40:55.141Z,102895.11
2017-12-05T08:43:22.750Z,102895.25
2017-12-05T08:45:50.355Z,102895.86
2017-12-05T08:48:18.062Z,102892.96
2017-12-05T08:50:45.681Z,102896.34
2017-12-05T08:53:13.299Z,102893.20
2017-12-05T08:55:40.890Z,102889.20
2017-12-05T08:58:08.506Z,102889.88
2017-12-05T09:00:36.099Z,102894.81
2017-12-05T09:03:03.737Z,102893.11
2017-12-05T09:05:31.323Z,102898.58
2017-12-05T09:07:58.999Z,102897.24
2017-12-05T09:10:26.581Z,102896.15
2017-12-05T09:12:54.262Z,102903.63
2017-12-05T09:15:21.830Z,102898.95
2017-12-05T09:17:51.155Z,102894.68
2017-12-05T09:20:17.066Z,102902.77
2017-12-05T09:22:44.705Z,102910.98
2017-12-05T09:25:12.273Z,102905.48
2017-12-05T09:27:39.873Z,102907.81
2017-12-05T09:30:07.531Z,102908.86
2017-12-05T09:32:35.111Z,102909.28
2017-12-05T09:35:02.815Z,102907.34
2017-12-05T09:37:30.402Z,102913.04
2017-12-05T09:39:58.022Z,102911.84
2017-12-05T09:42:25.612Z,102907.48
2017-12-05T09:44:53.218Z,102908.95
2017-12-05T09:47:20.791Z,102912.48
2017-12-05T09:49:48.426Z,102911.71
2017-12-05T09:52:16.017Z,102916.03
2017-12-05T09:54:43.650Z,102917.66
2017-12-05T09:57:11.230Z,102917.52
2017-12-05T09:59:38.859Z,102918.47
2017-12-05T10:02:06.456Z,102917.33
2017-12-05T10:04:34.099Z,102919.14
2017-12-05T10:07:01.694Z,102921.77
2017-12-05T10:09:29.335Z,102923.70
2017-12-05T10:11:56.915Z,102924.62
2017-12-05T10:14:24.530Z,102923.09
2017-12-05T10:16:52.127Z,102918.80
2017-12-05T10:19:19.754Z,102918.43
2017-12-05T10:21:47.418Z,102922.76
2017-12-05T10:24:14.988Z,102918.91
2017-12-05T10:26:42.574Z,102914.48
2017-12-05T10:29:10.230Z,102917.24
2017-12-05T10:31:37.840Z,102912.45
2017-12-05T10:34:05.502Z,102912.77
2017-12-05T10:36:33.138Z,102909.69
2017-12-05T10:39:00.738Z,102912.39
2017-12-05T10:41:28.318Z,102905.16
2017-12-05T10:43:55.910Z,102910.67
2017-12-05T10:46:23.534Z,102909.88
2017-12-05T10:48:51.131Z,102903.78
2017-12-05T10:51:18.734Z,102899.12
2017-12-05T10:53:46.355Z,102907.16
2017-12-05T10:56:13.978Z,102902.50
2017-12-05T10:58:41.542Z,102897.94
2017-12-05T11:01:09.216Z,102897.89
2017-12-05T11:03:36.866Z,102894.55
2017-12-05T11:06:04.491Z,102892.56
2017-12-05T11:08:32.090Z,102888.89
2017-12-05T11:10:59.714Z,102887.18
2017-12-05T11:13:27.281Z,102889.55
2017-12-05T11:15:54.930Z,102890.59
2017-12-05T11:18:22.584Z,102897.65
2017-12-05T11:20:50.426Z,102897.30
2017-12-05T11:23:18.050Z,102901.78
2017-12-05T11:25:45.707Z,102897.69
2017-12-05T11:28:13.287Z,102891.50
2017-12-05T11:30:41.045Z,102900.41
2017-12-05T11:33:08.651Z,102899.50
2017-12-05T11:35:36.269Z,102893.84
2017-12-05T11:38:03.863Z,102892.17
2017-12-05T11:40:31.473Z,102889.07
2017-12-05T11:42:59.070Z,102888.59
2017-12-05T11:45:26.709Z,102891.26
2017-12-05T11:47:54.303Z,102884.31
2017-12-05T11:50:21.910Z,102887.73
2017-12-05T11:52:49.501Z,102885.49
2017-12-05T11:55:17.090Z,102887.77
2017-12-05T11:57:44.725Z,102892.77
2017-12-05T12:00:12.309Z,102887.53
2017-12-05T12:02:39.961Z,102886.30
2017-12-05T12:05:07.538Z,102884.16
2017-12-05T12:07:35.167Z,102881.50
2017-12-05T12:10:02.758Z,102876.27
2017-12-05T12:12:30.396Z,102880.31
2017-12-05T12:14:57.990Z,102887.34
2017-12-05T12:17:25.631Z,102880.91
2017-12-05T12:19:53.221Z,102880.05
2017-12-05T12:22:20.847Z,102879.39
2017-12-05T12:24:48.441Z,102877.54
2017-12-05T12:27:16.085Z,102879.02
2017-12-05T12:29:43.678Z,102876.10
2017-12-05T12:32:11.310Z,102878.97
2017-12-05T12:34:38.895Z,102878.72
2017-12-05T12:37:06.567Z,102874.00
2017-12-05T12:39:34.164Z,102875.34
2017-12-05T12:42:01.848Z,102872.16
2017-12-05T12:44:29.447Z,102871.16
2017-12-05T12:46:57.126Z,102867.63
2017-12-05T12:49:24.738Z,102861.20
2017-12-05T12:51:52.362Z,102871.66
2017-12-05T12:54:20.020Z,102875.57
2017-12-05T12:56:47.663Z,102876.71
2017-12-05T12:59:15.286Z,102869.23
2017-12-05T13:01:42.886Z,102873.95
2017-12-05T13:04:10.502Z,102870.34
2017-12-05T13:06:38.106Z,102872.48
2017-12-05T13:09:05.726Z,102864.62
2017-12-05T13:11:33.315Z,102865.44
2017-12-05T13:14:00.937Z,102863.80
2017-12-05T13:16:28.541Z,102868.20
2017-12-05T13:18:56.161Z,102863.71
2017-12-05T13:21:23.770Z,102870.90
2017-12-05T13:23:51.406Z,102860.10
2017-12-05T13:26:19.031Z,102862.38
2017-12-05T13:28:46.675Z,102862.56
2017-12-05T13:31:14.311Z,102861.14
2017-12-05T13:33:41.939Z,102853.63
2017-12-05T13:36:09.537Z,102849.95
2017-12-05T13:38:37.155Z,102847.52
2017-12-05T13:41:04.782Z,102846.52
2017-12-05T13:43:32.379Z,102847.62
2017-12-05T13:45:59.998Z,102843.66
2017-12-05T13:48:27.670Z,102848.38
2017-12-05T13:50:55.314Z,102842.95
2017-12-05T13:53:22.902Z,102837.19
2017-12-05T13:55:50.535Z,102838.09
2017-12-05T13:58:18.118Z,102840.14
2017-12-05T14:00:45.751Z,102834.00
2017-12-05T14:03:13.334Z,102826.46
2017-12-05T14:05:40.996Z,102830.13
2017-12-05T14:08:08.604Z,102832.38
2017-12-05T14:10:36.229Z,102834.85
2017-12-05T14:13:03.824Z,102838.13
2017-12-05T14:15:31.439Z,102832.99
2017-12-05T14:17:59.077Z,102835.34
2017-12-05T14:20:26.715Z,102833.77
2017-12-05T14:22:54.304Z,102834.42
2017-12-05T14:25:21.930Z,102837.44
2017-12-05T14:27:49.536Z,102838.39
2017-12-05T14:30:17.163Z,102835.16
2017-12-05T14:32:44.847Z,102834.73
2017-12-05T14:35:14.014Z,102833.64
2017-12-05T14:37:41.615Z,102838.97
2017-12-05T14:40:09.238Z,102827.01
2017-12-05T14:42:36.842Z,102831.11
2017-12-05T14:45:04.487Z,102835.66
2017-12-05T14:47:32.141Z,102838.52
2017-12-05T14:49:59.715Z,102835.43
2017-12-05T14:52:27.306Z,102831.53
2017-12-05T14:54:54.947Z,102840.37
2017-12-05T14:57:22.556Z,102836.66
2017-12-05T14:59:50.158Z,102842.03
2017-12-05T15:02:17.750Z,102836.52
2017-12-05T15:04:45.390Z,102836.09
2017-12-05T15:07:12.975Z,102841.70
2017-12-05T15:09:40.575Z,102846.66
2017-12-05T15:12:08.276Z,102838.55
2017-12-05T15:14:35.866Z,102839.27
2017-12-05T15:17:03.596Z,102840.70
2017-12-05T15:19:31.879Z,102843.89
2017-12-05T15:21:59.494Z,102839.38
2017-12-05T15:24:27.131Z,102843.05
2017-12-05T15:26:54.793Z,102838.09
2017-12-05T15:29:22.378Z,102843.14
2017-12-05T15:31:49.974Z,102841.91
2017-12-05T15:34:17.613Z,102839.85
2017-12-05T15:36:45.225Z,102851.66
2017-12-05T15:39:12.862Z,102843.98
2017-12-05T15:41:40.458Z,102841.91
2017-12-05T15:44:08.092Z,102846.33
2017-12-05T15:46:35.706Z,102847.23
2017-12-05T15:49:03.336Z,102847.33
2017-12-05T15:51:30.971Z,102847.23
2017-12-05T15:53:58.663Z,102843.72
2017-12-05T15:56:26.258Z,102838.16
2017-12-05T15:58:53.906Z,102836.92
2017-12-05T16:01:21.528Z,102847.81
2017-12-05T16:03:49.175Z,102844.95
2017-12-05T16:06:16.804Z,102845.38
2017-12-05T16:08:44.442Z,102844.48
2017-12-05T16:11:12.075Z,102844.14
2017-12-05T16:13:39.670Z,102850.87
2017-12-05T16:16:07.311Z,102848.81
2017-12-05T16:18:34.906Z,102859.71
2017-12-05T16:21:02.595Z,102854.58
2017-12-05T16:23:30.186Z,102855.62
2017-12-05T16:25:57.879Z,102853.05
2017-12-05T16:28:25.546Z,102850.61
2017-12-05T16:30:53.277Z,102855.14
2017-12-05T16:33:20.865Z,102856.38
2017-12-05T16:35:48.526Z,102856.86
2017-12-05T16:38:16.106Z,102855.56
2017-12-05T16:40:43.794Z,102860.47
2017-12-05T16:43:11.487Z,102861.61
2017-12-05T16:45:39.164Z,102860.37
2017-12-05T16:48:06.791Z,102856.18
2017-12-05T16:50:34.526Z,102855.08
2017-12-05T16:53:02.146Z,102846.27
2017-12-05T16:55:29.755Z,102852.61
2017-12-05T16:57:57.341Z,102850.13
2017-12-05T17:00:24.973Z,102860.64
2017-12-05T17:02:52.587Z,102861.06
2017-12-05T17:05:20.180Z,102861.45
2017-12-05T17:07:47.823Z,102859.73
2017-12-05T17:10:15.502Z,102861.55
2017-12-05T17:12:43.172Z,102866.98
2017-12-05T17:15:10.803Z,102863.69
2017-12-05T17:17:38.424Z,102864.80
2017-12-05T17:20:06.063Z,102861.84
2017-12-05T17:22:33.710Z,102867.79
2017-12-05T17:25:01.320Z,102865.84
2017-12-05T17:27:29.026Z,102869.51
2017-12-05T17:29:56.644Z,102875.88
2017-12-05T17:32:24.264Z,102874.03
2017-12-05T17:34:51.910Z,102875.08
2017-12-05T17:37:19.531Z,102872.08
2017-12-05T17:39:47.189Z,102871.13
2017-12-05T17:42:14.812Z,102876.27
2017-12-05T17:44:42.473Z,102873.31
2017-12-05T17:47:10.079Z,102876.37
2017-12-05T17:49:37.850Z,102866.71
2017-12-05T17:52:05.494Z,102866.91
2017-12-05T17:54:33.146Z,102869.27
2017-12-05T17:57:00.738Z,102869.27
2017-12-05T17:59:28.446Z,102865.08
2017-12-05T18:01:56.105Z,102868.56
2017-12-05T18:04:23.734Z,102860.33
2017-12-05T18:06:51.333Z,102859.52
2017-12-05T18:09:19.034Z,102863.52
2017-12-05T18:11:46.648Z,102864.62
2017-12-05T18:14:14.282Z,102856.04
2017-12-05T18:28:48.234Z,102843.75
2017-12-05T18:31:15.944Z,102850.36
2017-12-05T18:33:43.560Z,102848.70
2017-12-05T18:36:11.274Z,102845.70
2017-12-05T18:38:38.909Z,102843.08
2017-12-05T18:41:06.577Z,102841.91
2017-12-05T18:43:34.300Z,102841.38
2017-12-05T18:46:01.907Z,102844.11
2017-12-05T18:48:29.499Z,102837.67
2017-12-05T18:50:57.195Z,102838.66
2017-12-05T18:53:24.800Z,102839.23
2017-12-05T18:55:52.523Z,102839.43
2017-12-05T18:58:20.123Z,102837.63
2017-12-05T19:00:47.760Z,102839.81
2017-12-05T19:03:15.357Z,102842.88
2017-12-05T19:05:43.028Z,102844.20
2017-12-05T19:08:10.735Z,102844.00
2017-12-05T19:10:38.364Z,102844.91
2017-12-05T19:13:05.963Z,102841.15
2017-12-05T19:15:33.599Z,102839.26
2017-12-05T19:18:01.288Z,102841.50
2017-12-05T19:20:28.944Z,102835.88
2017-12-05T19:22:56.536Z,102838.80
2017-12-05T19:25:24.128Z,102844.06
2017-12-05T19:27:51.758Z,102845.34
2017-12-05T19:30:19.535Z,102837.96
2017-12-05T19:32:47.191Z,102842.61
2017-12-05T19:35:15.652Z,102838.98
2017-12-05T19:37:43.483Z,102837.98
2017-12-05T19:40:11.112Z,102841.31
2017-12-05T19:42:38.775Z,102840.11
2017-12-05T19:45:06.383Z,102840.05
2017-12-05T19:47:33.993Z,102842.55
2017-12-05T19:50:01.665Z,102838.14
2017-12-05T19:52:29.329Z,102838.69
2017-12-05T19:54:57.280Z,102839.54
2017-12-05T19:57:24.985Z,102840.52
2017-12-05T19:59:52.615Z,102840.28
2017-12-05T20:02:20.235Z,102844.98
2017-12-05T20:04:47.887Z,102843.14
2017-12-05T20:07:15.544Z,102844.56
2017-12-05T20:09:43.312Z,102838.23
2017-12-05T20:12:11.055Z,102845.03
2017-12-05T20:14:38.659Z,102839.56
2017-12-05T20:17:06.519Z,102838.33
2017-12-05T20:19:34.204Z,102841.58
2017-12-05T20:22:01.876Z,102837.54
2017-12-05T20:24:29.528Z,102835.30
2017-12-05T20:26:57.133Z,102828.20
2017-12-05T20:29:24.750Z,102823.40
2017-12-05T20:31:52.455Z,102820.12
2017-12-05T20:34:20.191Z,102822.91
2017-12-05T20:36:47.880Z,102824.58
2017-12-05T20:39:15.747Z,102825.00
2017-12-05T20:41:43.394Z,102832.66
2017-12-05T20:44:11.032Z,102831.81
2017-12-05T20:46:38.695Z,102834.39
2017-12-05T20:49:06.377Z,102825.87
2017-12-05T20:51:33.994Z,102830.78
2017-12-05T20:54:01.626Z,102827.11
2017-12-05T20:56:29.232Z,102827.53
2017-12-05T20:58:56.887Z,102831.81
2017-12-05T21:01:24.597Z,102827.06
2017-12-05T21:03:52.427Z,102822.97
2017-12-05T21:06:20.058Z,102831.20
2017-12-05T21:08:47.783Z,102828.34
2017-12-05T21:11:15.507Z,102832.95
2017-12-05T21:13:43.163Z,102832.05
2017-12-05T21:16:10.892Z,102827.72
2017-12-05T21:18:38.682Z,102829.67
2017-12-05T21:21:06.320Z,102827.44
2017-12-05T21:23:33.941Z,102828.86
2017-12-05T21:26:01.638Z,102833.80
2017-12-05T21:28:29.306Z,102829.94
2017-12-05T21:30:56.915Z,102828.19
2017-12-05T21:33:24.622Z,102826.23
2017-12-05T21:35:52.295Z,102819.47
2017-12-05T21:38:19.935Z,102823.66
2017-12-05T21:40:47.541Z,102823.82
2017-12-05T21:43:15.164Z,102819.07
2017-12-05T21:45:42.755Z,102822.26
2017-12-05T21:48:10.514Z,102815.17
2017-12-05T21:50:38.273Z,102813.88
2017-12-05T21:53:05.936Z,102808.83
2017-12-05T21:55:33.555Z,102817.02
2017-12-05T21:58:01.180Z,102812.02
2017-12-05T22:00:28.778Z,102813.73
2017-12-05T22:02:56.407Z,102814.68
2017-12-05T22:05:24.009Z,102812.31
2017-12-05T22:07:51.636Z,102814.06
2017-12-05T22:10:19.325Z,102806.69
2017-12-05T22:12:46.979Z,102804.41
2017-12-05T22:15:14.602Z,102800.22
2017-12-05T22:17:42.250Z,102799.73
2017-12-05T22:20:09.890Z,102796.35
2017-12-05T22:22:37.504Z,102801.55
2017-12-05T22:25:05.169Z,102796.55
2017-12-05T22:27:32.797Z,102801.65
2017-12-05T22:30:00.411Z,102796.88
2017-12-05T22:32:28.041Z,102794.66
2017-12-05T22:34:55.684Z,102792.00
2017-12-05T22:37:23.302Z,102795.57
2017-12-05T22:39:50.915Z,102794.38
2017-12-05T22:42:18.487Z,102798.05
2017-12-05T22:44:46.119Z,102790.02
2017-12-05T22:47:13.750Z,102790.73
2017-12-05T22:49:41.370Z,102789.98
2017-12-05T22:52:08.955Z,102788.58
2017-12-05T22:54:36.608Z,102786.86
2017-12-05T22:57:04.182Z,102787.70
2017-12-05T22:59:31.783Z,102782.57
2017-12-05T23:01:59.414Z,102785.40
2017-12-05T23:04:27.007Z,102786.83
2017-12-05T23:06:55.448Z,102789.49
2017-12-05T23:09:23.047Z,102795.77
2017-12-05T23:11:50.708Z,102793.10
2017-12-05T23:14:18.335Z,102787.58
2017-12-05T23:16:45.960Z,102792.39
2017-12-05T23:19:13.552Z,102797.04
2017-12-05T23:21:41.170Z,102795.38
2017-12-05T23:24:08.769Z,102797.04
2017-12-05T23:26:36.446Z,102792.91
2017-12-05T23:29:04.049Z,102793.00
2017-12-05T23:31:31.680Z,102789.23
2017-12-05T23:33:59.273Z,102788.91
2017-12-05T23:36:26.903Z,102785.82
2017-12-05T23:38:54.532Z,102794.14
2017-12-05T23:41:22.142Z,102795.28
2017-12-05T23:43:49.758Z,102803.80
2017-12-05T23:46:17.363Z,102803.24
2017-12-05T23:48:44.943Z,102800.34
2017-12-05T23:51:12.571Z,102801.20
2017-12-05T23:53:40.166Z,102801.39
2017-12-05T23:56:07.799Z,102803.24
2017-12-05T23:58:35.386Z,102803.90
